createdAt,value
2017-04-13T00:00:08.242Z,2.05
2017-04-13T00:01:08.709Z,2.63
2017-04-13T00:02:08.805Z,2.00
2017-04-13T00:03:09.817Z,1.85
2017-04-13T00:04:09.838Z,2.00
2017-04-13T00:05:09.959Z,3.32
2017-04-13T00:06:10.279Z,2.00
2017-04-13T00:07:10.365Z,1.37
2017-04-13T00:08:10.571Z,1.78
2017-04-13T00:09:10.639Z,1.98
2017-04-13T00:10:10.861Z,1.43
2017-04-13T00:11:11.426Z,2.27
2017-04-13T00:12:12.222Z,1.95
2017-04-13T00:13:12.229Z,1.68
2017-04-13T00:14:12.379Z,1.73
2017-04-13T00:15:13.308Z,2.60
2017-04-13T00:16:14.389Z,2.28
2017-04-13T00:17:14.426Z,2.33
2017-04-13T00:18:14.483Z,2.42
2017-04-13T00:19:14.508Z,2.23
2017-04-13T00:20:14.568Z,2.17
2017-04-13T00:21:15.034Z,2.63
2017-04-13T00:22:15.099Z,2.52
2017-04-13T00:23:15.943Z,1.58
2017-04-13T00:24:16.038Z,4.40
2017-04-13T00:25:16.082Z,2.00
2017-04-13T00:26:16.550Z,2.25
2017-04-13T00:27:17.514Z,1.72
2017-04-13T00:28:17.607Z,1.92
2017-04-13T00:29:17.708Z,2.17
2017-04-13T00:30:17.779Z,2.78
2017-04-13T00:31:18.338Z,3.12
2017-04-13T00:32:18.455Z,2.08
2017-04-13T00:33:18.564Z,1.77
2017-04-13T00:34:18.635Z,1.42
2017-04-13T00:35:18.693Z,2.02
2017-04-13T00:38:36.488Z,2.47
2017-04-13T00:39:37.627Z,2.50
2017-04-13T00:40:39.713Z,2.72
2017-04-13T00:41:40.178Z,2.50
2017-04-13T00:42:40.358Z,2.35
2017-04-13T00:43:40.646Z,2.47
2017-04-13T00:44:40.837Z,2.20
2017-04-13T00:45:41.014Z,2.07
2017-04-13T00:46:41.780Z,2.72
2017-04-13T00:47:41.914Z,1.98
2017-04-13T00:48:42.003Z,2.40
2017-04-13T00:49:42.917Z,1.97
2017-04-13T00:50:43.092Z,2.43
2017-04-13T00:51:43.459Z,2.13
2017-04-13T00:52:43.541Z,2.45
2017-04-13T00:53:43.574Z,2.88
2017-04-13T00:54:43.661Z,2.15
2017-04-13T00:55:43.677Z,2.52
2017-04-13T00:56:44.058Z,2.45
2017-04-13T00:57:44.086Z,2.80
2017-04-13T00:58:44.197Z,2.27
2017-04-13T00:59:44.282Z,2.92
2017-04-13T01:00:44.415Z,3.55
2017-04-13T01:01:44.853Z,2.73
2017-04-13T01:02:45.649Z,2.42
2017-04-13T01:03:45.752Z,2.90
2017-04-13T01:04:45.822Z,2.02
2017-04-13T01:05:45.870Z,3.20
2017-04-13T01:06:46.215Z,2.12
2017-04-13T01:07:46.286Z,2.53
2017-04-13T01:08:46.444Z,3.17
2017-04-13T01:09:46.530Z,3.10
2017-04-13T01:10:46.639Z,2.70
2017-04-13T01:11:47.195Z,2.23
2017-04-13T01:12:47.220Z,2.22
2017-04-13T01:13:47.240Z,2.83
2017-04-13T01:14:47.426Z,2.63
2017-04-13T01:15:47.471Z,2.02
2017-04-13T01:16:47.817Z,1.80
2017-04-13T01:17:48.746Z,1.85
2017-04-13T01:18:49.522Z,2.12
2017-04-13T01:19:49.631Z,2.65
2017-04-13T01:20:49.658Z,3.17
2017-04-13T01:21:50.230Z,1.90
2017-04-13T01:22:50.253Z,2.43
2017-04-13T01:23:50.367Z,2.58
2017-04-13T01:24:50.379Z,2.28
2017-04-13T01:25:50.523Z,3.10
2017-04-13T01:26:50.973Z,2.33
2017-04-13T01:27:51.051Z,3.18
2017-04-13T01:28:51.091Z,2.83
2017-04-13T01:29:51.182Z,2.22
2017-04-13T01:30:51.263Z,2.27
2017-04-13T01:31:51.925Z,4.35
2017-04-13T01:32:52.002Z,2.93
2017-04-13T01:33:52.071Z,2.43
2017-04-13T01:34:52.156Z,2.87
2017-04-13T01:35:52.258Z,2.75
2017-04-13T01:36:52.769Z,4.05
2017-04-13T01:37:52.842Z,3.23
2017-04-13T01:38:53.013Z,2.53
2017-04-13T01:39:53.090Z,2.85
2017-04-13T01:40:53.164Z,2.90
2017-04-13T01:41:53.731Z,3.12
2017-04-13T01:42:53.746Z,2.85
2017-04-13T01:43:53.797Z,2.40
2017-04-13T01:44:53.804Z,2.97
2017-04-13T01:45:54.113Z,2.78
2017-04-13T01:46:54.531Z,2.77
2017-04-13T01:47:54.577Z,2.48
2017-04-13T01:48:54.662Z,2.50
2017-04-13T01:49:54.684Z,3.25
2017-04-13T01:50:54.801Z,3.05
2017-04-13T01:51:55.333Z,2.32
2017-04-13T01:52:55.391Z,2.75
2017-04-13T01:53:55.471Z,3.25
2017-04-13T01:54:55.411Z,3.22
2017-04-13T01:55:55.505Z,3.12
2017-04-13T01:56:55.861Z,2.80
2017-04-13T01:57:55.907Z,2.75
2017-04-13T01:58:56.650Z,2.80
2017-04-13T01:59:59.899Z,2.97
2017-04-13T02:01:00.124Z,3.78
2017-04-13T02:02:00.711Z,3.60
2017-04-13T02:03:00.776Z,3.40
2017-04-13T02:04:00.992Z,3.22
2017-04-13T02:05:07.837Z,4.80
2017-04-13T02:06:07.970Z,4.70
2017-04-13T02:07:08.566Z,2.75
2017-04-13T02:08:08.705Z,3.12
2017-04-13T02:09:08.801Z,4.10
2017-04-13T02:10:08.842Z,4.00
2017-04-13T02:11:09.035Z,4.18
2017-04-13T02:12:09.519Z,3.73
2017-04-13T02:13:09.690Z,3.28
2017-04-13T02:14:09.798Z,3.00
2017-04-13T02:15:09.853Z,3.15
2017-04-13T02:16:10.257Z,3.33
2017-04-13T02:17:10.627Z,2.93
2017-04-13T02:18:10.754Z,3.52
2017-04-13T02:19:10.819Z,3.48
2017-04-13T02:20:11.139Z,4.38
2017-04-13T02:21:11.173Z,2.88
2017-04-13T02:22:11.828Z,3.45
2017-04-13T02:23:11.976Z,2.68
2017-04-13T02:24:12.106Z,2.77
2017-04-13T02:25:12.180Z,3.25
2017-04-13T02:26:12.494Z,2.85
2017-04-13T02:27:12.972Z,3.05
2017-04-13T02:28:13.791Z,3.62
2017-04-13T02:29:14.554Z,4.17
2017-04-13T02:30:14.653Z,4.40
2017-04-13T02:31:14.684Z,3.82
2017-04-13T02:32:15.983Z,3.13
2017-04-13T02:33:22.895Z,4.05
2017-04-13T02:34:22.925Z,3.83
2017-04-13T02:35:24.053Z,3.32
2017-04-13T02:36:24.150Z,4.37
2017-04-13T02:37:24.494Z,4.05
2017-04-13T02:38:25.842Z,4.15
2017-04-13T02:39:25.913Z,3.52
2017-04-13T02:40:32.078Z,3.72
2017-04-13T02:41:32.136Z,4.28
2017-04-13T02:42:32.672Z,3.60
2017-04-13T02:43:32.835Z,3.65
2017-04-13T02:44:32.867Z,3.72
2017-04-13T02:45:32.918Z,3.57
2017-04-13T02:46:32.977Z,4.40
2017-04-13T02:47:33.437Z,3.27
2017-04-13T02:58:18.871Z,3.87
2017-04-13T02:59:19.003Z,3.55
2017-04-13T03:00:19.106Z,4.77
2017-04-13T03:01:19.731Z,4.38
2017-04-13T03:02:20.538Z,5.20
2017-04-13T03:03:20.994Z,5.10
2017-04-13T03:04:21.159Z,5.73
2017-04-13T03:05:21.382Z,5.98
2017-04-13T03:06:21.391Z,5.00
2017-04-13T03:07:21.461Z,6.02
2017-04-13T03:08:21.857Z,4.75
2017-04-13T03:09:21.891Z,5.15
2017-04-13T03:10:21.966Z,6.27
2017-04-13T03:11:22.042Z,5.87
2017-04-13T03:12:22.064Z,5.20
2017-04-13T03:13:22.605Z,4.95
2017-04-13T03:14:24.517Z,4.72
2017-04-13T03:15:25.335Z,4.25
2017-04-13T03:16:26.066Z,3.95
2017-04-13T03:17:27.139Z,5.77
2017-04-13T03:18:28.507Z,6.00
2017-04-13T03:19:29.005Z,6.28
2017-04-13T03:20:29.052Z,4.32
2017-04-13T03:21:29.135Z,4.48
2017-04-13T03:22:29.288Z,4.78
2017-04-13T03:23:29.641Z,5.32
2017-04-13T03:24:29.876Z,7.35
2017-04-13T03:25:30.451Z,4.22
2017-04-13T03:26:30.480Z,4.67
2017-04-13T03:27:31.219Z,4.83
2017-04-13T03:28:31.607Z,5.20
2017-04-13T03:29:31.695Z,4.12
2017-04-13T03:30:31.607Z,4.75
2017-04-13T03:31:31.655Z,4.73
2017-04-13T03:32:31.715Z,5.15
2017-04-13T03:33:32.066Z,5.45
2017-04-13T03:34:32.167Z,4.93
2017-04-13T03:35:32.235Z,7.30
2017-04-13T03:36:33.107Z,4.40
2017-04-13T03:37:33.931Z,5.47
2017-04-13T03:38:34.294Z,4.80
2017-04-13T03:39:34.373Z,5.68
2017-04-13T03:40:34.525Z,4.40
2017-04-13T03:41:34.605Z,4.98
2017-04-13T03:42:34.631Z,5.20
2017-04-13T03:43:35.100Z,4.87
2017-04-13T03:44:36.255Z,4.60
2017-04-13T03:45:36.355Z,4.92
2017-04-13T03:46:36.453Z,4.67
2017-04-13T03:47:36.544Z,6.42
2017-04-13T03:48:36.966Z,6.40
2017-04-13T03:49:37.069Z,5.18
2017-04-13T03:50:37.201Z,5.05
2017-04-13T03:51:37.270Z,7.48
2017-04-13T03:52:37.330Z,4.78
2017-04-13T03:53:37.868Z,4.62
2017-04-13T03:54:37.929Z,4.62
2017-04-13T03:55:38.716Z,4.97
2017-04-13T03:56:38.758Z,5.13
2017-04-13T03:57:39.383Z,5.28
2017-04-13T03:58:39.725Z,4.88
2017-04-13T03:59:39.863Z,4.55
2017-04-13T04:00:39.982Z,3.52
2017-04-13T04:01:40.080Z,5.27
2017-04-13T04:02:40.188Z,4.33
2017-04-13T04:03:40.729Z,4.78
2017-04-13T04:04:40.736Z,4.23
2017-04-13T04:05:40.824Z,4.95
2017-04-13T04:06:40.918Z,5.20
2017-04-13T04:07:41.004Z,4.53
2017-04-13T04:08:41.526Z,5.97
2017-04-13T04:09:41.638Z,5.05
2017-04-13T04:10:41.732Z,6.40
2017-04-13T04:11:42.603Z,4.57
2017-04-13T04:12:42.665Z,4.27
2017-04-13T04:13:43.190Z,5.08
2017-04-13T04:14:44.132Z,5.50
2017-04-13T04:15:44.195Z,5.40
2017-04-13T04:16:45.610Z,5.05
2017-04-13T04:17:45.657Z,6.67
2017-04-13T04:18:46.103Z,5.20
2017-04-13T04:19:46.217Z,5.60
2017-04-13T04:20:46.402Z,5.58
2017-04-13T04:21:46.750Z,4.28
2017-04-13T04:22:46.813Z,4.45
2017-04-13T04:23:47.268Z,5.55
2017-04-13T04:24:47.372Z,5.02
2017-04-13T04:25:47.496Z,5.37
2017-04-13T04:26:47.555Z,4.78
2017-04-13T04:27:48.546Z,6.32
2017-04-13T04:28:48.899Z,4.92
2017-04-13T04:29:49.051Z,4.75
2017-04-13T04:30:49.158Z,5.55
2017-04-13T04:31:49.234Z,5.17
2017-04-13T04:32:49.878Z,6.23
2017-04-13T04:33:50.301Z,5.75
2017-04-13T04:34:50.502Z,6.30
2017-04-13T04:35:50.661Z,5.87
2017-04-13T04:36:50.794Z,5.72
2017-04-13T04:37:50.829Z,4.80
2017-04-13T04:38:51.942Z,6.45
2017-04-13T04:39:52.014Z,5.25
2017-04-13T04:40:52.055Z,4.90
2017-04-13T04:41:52.083Z,5.32
2017-04-13T04:42:52.923Z,4.32
2017-04-13T04:43:52.556Z,5.15
2017-04-13T04:44:52.574Z,5.85
2017-04-13T04:45:52.654Z,5.25
2017-04-13T04:46:52.721Z,5.32
2017-04-13T04:47:52.908Z,5.62
2017-04-13T04:48:53.073Z,8.33
2017-04-13T04:49:54.262Z,4.75
2017-04-13T04:50:54.370Z,5.20
2017-04-13T04:51:54.943Z,5.22
2017-04-13T04:52:55.776Z,5.15
2017-04-13T04:53:56.143Z,4.98
2017-04-13T04:55:09.773Z,5.12
2017-04-13T04:56:10.087Z,5.10
2017-04-13T04:57:10.173Z,4.52
2017-04-13T04:58:10.279Z,6.62
2017-04-13T04:59:10.675Z,4.33
2017-04-13T05:00:10.671Z,5.12
2017-04-13T05:01:10.737Z,5.68
2017-04-13T05:02:10.831Z,5.22
2017-04-13T05:03:10.963Z,5.05
2017-04-13T05:04:11.503Z,4.10
2017-04-13T05:05:11.559Z,6.37
2017-04-13T05:06:11.841Z,5.45
2017-04-13T05:07:11.962Z,5.45
2017-04-13T05:08:12.003Z,4.53
2017-04-13T05:09:12.509Z,5.75
2017-04-13T05:10:12.567Z,4.93
2017-04-13T05:11:13.154Z,4.70
2017-04-13T05:12:13.302Z,4.00
2017-04-13T05:13:13.855Z,4.92
2017-04-13T05:14:14.267Z,4.70
2017-04-13T05:15:14.338Z,5.80
2017-04-13T05:16:14.473Z,5.18
2017-04-13T05:17:14.655Z,4.73
2017-04-13T05:18:14.879Z,4.92
2017-04-13T05:19:15.295Z,3.73
2017-04-13T05:20:15.416Z,4.30
2017-04-13T05:21:15.525Z,4.53
2017-04-13T05:22:15.833Z,5.45
2017-04-13T05:23:15.925Z,5.17
2017-04-13T05:24:16.498Z,3.62
2017-04-13T05:25:16.674Z,5.65
2017-04-13T05:26:16.812Z,4.05
2017-04-13T05:27:16.908Z,4.65
2017-04-13T05:28:17.170Z,4.70
2017-04-13T05:29:18.440Z,5.63
2017-04-13T05:30:25.171Z,5.47
2017-04-13T05:31:25.260Z,6.58
2017-04-13T05:32:25.555Z,6.08
2017-04-13T05:33:25.595Z,4.58
2017-04-13T05:34:26.130Z,4.53
2017-04-13T05:35:26.294Z,5.23
2017-04-13T05:36:26.351Z,4.78
2017-04-13T05:37:26.561Z,4.28
2017-04-13T05:38:27.453Z,4.23
2017-04-13T05:39:27.885Z,3.65
2017-04-13T05:40:27.993Z,5.08
2017-04-13T05:41:28.271Z,4.58
2017-04-13T05:42:29.221Z,4.42
2017-04-13T05:43:29.848Z,4.72
2017-04-13T05:44:30.295Z,5.05
2017-04-13T05:45:30.340Z,6.48
2017-04-13T05:46:30.481Z,3.20
2017-04-13T05:47:30.699Z,5.27
2017-04-13T05:48:30.913Z,4.02
2017-04-13T05:49:31.452Z,5.48
2017-04-13T05:50:32.199Z,4.58
2017-04-13T05:51:33.264Z,4.53
2017-04-13T05:52:33.399Z,3.93
2017-04-13T05:53:33.518Z,3.87
2017-04-13T05:54:33.916Z,3.10
2017-04-13T05:55:34.063Z,3.00
2017-04-13T05:56:34.191Z,4.57
2017-04-13T05:57:34.341Z,4.70
2017-04-13T05:58:34.423Z,4.15
2017-04-13T05:59:34.828Z,4.48
2017-04-13T06:00:34.859Z,3.30
2017-04-13T06:01:34.992Z,4.22
2017-04-13T06:02:35.137Z,5.03
2017-04-13T06:03:35.172Z,3.88
2017-04-13T06:04:35.854Z,3.67
2017-04-13T06:05:36.700Z,3.82
2017-04-13T06:06:38.203Z,4.10
2017-04-13T06:07:38.454Z,4.78
2017-04-13T06:08:38.641Z,4.20
2017-04-13T06:09:39.272Z,3.88
2017-04-13T06:10:39.466Z,3.53
2017-04-13T06:11:39.522Z,3.57
2017-04-13T06:12:39.649Z,2.82
2017-04-13T06:13:39.848Z,6.10
2017-04-13T06:14:40.925Z,3.07
2017-04-13T06:15:41.008Z,3.92
2017-04-13T06:16:41.976Z,3.63
2017-04-13T06:17:42.810Z,3.78
2017-04-13T06:18:43.792Z,3.98
2017-04-13T06:19:44.361Z,3.68
2017-04-13T06:20:44.465Z,2.68
2017-04-13T06:21:44.510Z,3.15
2017-04-13T06:22:44.702Z,2.32
2017-04-13T06:23:44.741Z,3.62
2017-04-13T06:24:45.206Z,3.28
2017-04-13T06:25:45.335Z,4.27
2017-04-13T06:26:45.460Z,4.42
2017-04-13T06:27:45.518Z,4.33
2017-04-13T06:28:45.671Z,2.73
2017-04-13T06:29:46.277Z,2.97
2017-04-13T06:30:46.439Z,2.58
2017-04-13T06:31:46.799Z,3.08
2017-04-13T06:32:46.865Z,3.18
2017-04-13T06:33:46.881Z,3.23
2017-04-13T06:34:47.335Z,2.60
2017-04-13T06:35:47.606Z,4.03
2017-04-13T06:36:47.735Z,2.48
2017-04-13T06:37:47.754Z,2.30
2017-04-13T06:38:48.600Z,3.13
2017-04-13T06:39:49.011Z,2.45
2017-04-13T06:40:49.142Z,3.13
2017-04-13T06:41:49.305Z,3.35
2017-04-13T06:42:49.416Z,2.58
2017-04-13T06:43:49.574Z,3.27
2017-04-13T06:44:49.970Z,2.33
2017-04-13T06:45:50.125Z,4.48
2017-04-13T06:46:50.278Z,3.13
2017-04-13T06:47:50.420Z,3.32
2017-04-13T06:48:50.640Z,3.90
2017-04-13T06:49:51.627Z,2.73
2017-04-13T06:50:51.791Z,3.25
2017-04-13T06:51:51.835Z,2.47
2017-04-13T06:52:51.910Z,2.98
2017-04-13T06:53:51.941Z,2.58
2017-04-13T06:54:52.952Z,3.25
2017-04-13T06:55:52.963Z,2.93
2017-04-13T06:56:53.073Z,2.52
2017-04-13T06:57:53.115Z,2.98
2017-04-13T06:58:53.162Z,2.55
2017-04-13T06:59:53.661Z,3.42
2017-04-13T07:00:53.726Z,3.07
2017-04-13T07:01:53.955Z,3.63
2017-04-13T07:02:55.974Z,2.62
2017-04-13T07:03:57.083Z,3.32
2017-04-13T07:04:57.995Z,2.15
2017-04-13T07:05:58.244Z,1.98
2017-04-13T07:06:58.344Z,3.17
2017-04-13T07:07:58.500Z,2.02
2017-04-13T07:08:58.579Z,2.27
2017-04-13T07:09:59.746Z,2.70
2017-04-13T07:11:01.817Z,3.10
2017-04-13T07:12:02.003Z,2.90
2017-04-13T07:13:02.254Z,2.12
2017-04-13T07:14:02.566Z,4.28
2017-04-13T07:15:03.060Z,2.20
2017-04-13T07:16:03.120Z,2.63
2017-04-13T07:17:03.159Z,2.73
2017-04-13T07:18:03.226Z,2.98
2017-04-13T07:19:03.620Z,2.50
2017-04-13T07:20:04.128Z,2.48
2017-04-13T07:21:04.159Z,2.23
2017-04-13T07:22:04.760Z,1.98
2017-04-13T07:23:05.050Z,2.25
2017-04-13T07:24:05.226Z,3.17
2017-04-13T07:25:05.760Z,3.03
2017-04-13T07:26:05.872Z,3.12
2017-04-13T07:27:05.960Z,2.30
2017-04-13T07:28:06.133Z,2.15
2017-04-13T07:29:06.294Z,2.00
2017-04-13T07:30:06.966Z,2.78
2017-04-13T07:31:07.638Z,2.35
2017-04-13T07:32:07.845Z,3.12
2017-04-13T07:33:07.930Z,1.75
2017-04-13T07:34:08.050Z,1.78
2017-04-13T07:35:08.552Z,2.58
2017-04-13T07:36:08.745Z,2.62
2017-04-13T07:37:08.912Z,1.67
2017-04-13T07:38:09.031Z,2.32
2017-04-13T07:39:09.143Z,2.38
2017-04-13T07:40:09.684Z,2.40
2017-04-13T07:41:09.719Z,2.77
2017-04-13T07:42:09.769Z,2.13
2017-04-13T07:43:09.918Z,2.22
2017-04-13T07:44:10.053Z,2.40
2017-04-13T07:45:11.462Z,2.50
2017-04-13T07:46:11.754Z,3.47
2017-04-13T07:47:11.797Z,1.73
2017-04-13T07:48:11.866Z,2.73
2017-04-13T07:49:12.022Z,2.38
2017-04-13T07:50:12.718Z,1.95
2017-04-13T07:51:12.902Z,1.98
2017-04-13T07:52:12.948Z,1.83
2017-04-13T07:53:13.202Z,1.00
2017-04-13T07:54:13.927Z,1.60
2017-04-13T07:55:14.500Z,1.45
2017-04-13T07:56:14.608Z,2.28
2017-04-13T07:57:14.666Z,1.65
2017-04-13T07:58:14.878Z,1.90
2017-04-13T07:59:15.032Z,0.75
2017-04-13T08:00:15.556Z,1.30
2017-04-13T08:01:15.706Z,1.32
2017-04-13T08:02:16.014Z,1.17
2017-04-13T08:03:16.202Z,2.22
2017-04-13T08:04:16.249Z,1.02
2017-04-13T08:05:16.725Z,1.17
2017-04-13T08:06:16.851Z,2.42
2017-04-13T08:07:16.939Z,0.98
2017-04-13T08:08:17.116Z,1.78
2017-04-13T08:09:17.168Z,2.18
2017-04-13T08:10:17.646Z,2.08
2017-04-13T08:11:17.662Z,1.67
2017-04-13T08:12:18.589Z,2.35
2017-04-13T08:13:18.662Z,2.03
2017-04-13T08:14:18.815Z,1.90
2017-04-13T08:15:19.651Z,1.28
2017-04-13T08:16:20.642Z,2.08
2017-04-13T08:17:20.956Z,2.03
2017-04-13T08:18:20.990Z,1.88
2017-04-13T08:19:21.863Z,1.53
2017-04-13T08:20:22.238Z,2.15
2017-04-13T08:21:23.359Z,2.23
2017-04-13T08:22:23.515Z,2.28
2017-04-13T08:23:23.593Z,1.57
2017-04-13T08:24:23.730Z,1.48
2017-04-13T08:25:25.133Z,1.62
2017-04-13T08:26:25.213Z,1.38
2017-04-13T08:27:25.372Z,1.45
2017-04-13T08:28:25.564Z,2.70
2017-04-13T08:29:25.634Z,2.27
2017-04-13T08:30:25.943Z,3.33
2017-04-13T08:31:26.095Z,1.70
2017-04-13T08:32:26.433Z,1.98
2017-04-13T08:33:26.490Z,2.60
2017-04-13T08:34:26.721Z,1.73
2017-04-13T08:35:33.326Z,1.90
2017-04-13T08:36:33.563Z,1.60
2017-04-13T08:37:34.694Z,2.23
2017-04-13T08:38:34.756Z,3.35
2017-04-13T08:39:35.532Z,2.37
2017-04-13T08:40:36.004Z,1.87
2017-04-13T08:41:37.300Z,2.10
2017-04-13T08:42:37.361Z,2.15
2017-04-13T08:43:37.458Z,2.42
2017-04-13T08:44:37.505Z,1.82
2017-04-13T08:45:37.962Z,2.57
2017-04-13T08:46:38.073Z,2.95
2017-04-13T08:47:38.221Z,3.08
2017-04-13T08:48:38.266Z,2.87
2017-04-13T08:49:38.351Z,1.62
2017-04-13T08:50:38.857Z,2.03
2017-04-13T08:51:38.904Z,1.53
2017-04-13T08:52:39.049Z,1.90
2017-04-13T08:53:39.690Z,2.00
2017-04-13T08:54:39.885Z,1.87
2017-04-13T08:55:40.509Z,1.90
2017-04-13T08:56:40.668Z,1.73
2017-04-13T08:57:40.718Z,2.48
2017-04-13T08:58:40.841Z,2.02
2017-04-13T08:59:40.994Z,2.08
2017-04-13T09:00:41.546Z,2.48
2017-04-13T09:01:41.690Z,2.13
2017-04-13T09:02:41.730Z,2.58
2017-04-13T09:03:41.861Z,2.65
2017-04-13T09:04:42.187Z,2.08
2017-04-13T09:05:42.462Z,1.75
2017-04-13T09:06:43.614Z,2.20
2017-04-13T09:07:43.788Z,2.28
2017-04-13T09:08:45.384Z,1.72
2017-04-13T09:09:52.228Z,2.12
2017-04-13T09:10:52.573Z,2.37
2017-04-13T09:11:52.656Z,2.30
2017-04-13T09:12:52.704Z,2.27
2017-04-13T09:13:52.813Z,1.63
2017-04-13T09:14:53.683Z,2.00
2017-04-13T09:15:54.158Z,2.02
2017-04-13T09:16:54.340Z,1.85
2017-04-13T09:17:54.743Z,1.55
2017-04-13T09:18:54.802Z,1.72
2017-04-13T09:19:54.935Z,1.40
2017-04-13T09:20:55.308Z,0.98
2017-04-13T09:21:55.382Z,1.40
2017-04-13T09:22:55.554Z,1.08
2017-04-13T09:23:55.650Z,1.02
2017-04-13T09:24:55.659Z,1.20
2017-04-13T09:25:55.980Z,2.97
2017-04-13T09:26:56.027Z,0.97
2017-04-13T09:27:56.128Z,1.28
2017-04-13T09:28:56.271Z,1.65
2017-04-13T09:29:56.278Z,1.43
2017-04-13T09:30:56.813Z,1.27
2017-04-13T09:31:56.885Z,1.32
2017-04-13T09:32:56.918Z,1.18
2017-04-13T09:33:56.923Z,1.62
2017-04-13T09:34:57.174Z,2.42
2017-04-13T09:35:57.559Z,1.12
2017-04-13T09:36:57.690Z,1.50
2017-04-13T09:37:57.885Z,1.63
2017-04-13T09:38:58.732Z,1.55
2017-04-13T09:39:58.914Z,2.00
2017-04-13T09:40:59.305Z,1.95
2017-04-13T09:41:59.291Z,1.17
2017-04-13T09:42:59.361Z,1.28
2017-04-13T09:43:59.450Z,2.07
2017-04-13T09:44:59.553Z,2.20
2017-04-13T09:46:00.398Z,1.68
2017-04-13T09:47:00.450Z,1.35
2017-04-13T09:48:00.605Z,1.82
2017-04-13T09:49:00.698Z,1.95
2017-04-13T09:50:00.876Z,1.95
2017-04-13T09:51:01.379Z,0.87
2017-04-13T09:52:01.533Z,1.62
2017-04-13T09:53:01.658Z,1.77
2017-04-13T09:54:01.902Z,1.80
2017-04-13T09:55:01.950Z,1.40
2017-04-13T09:56:02.517Z,1.02
2017-04-13T09:57:02.567Z,1.98
2017-04-13T09:58:02.678Z,1.42
2017-04-13T09:59:02.839Z,1.32
2017-04-13T10:00:02.898Z,2.05
2017-04-13T10:01:03.458Z,1.25
2017-04-13T10:02:04.334Z,1.62
2017-04-13T10:03:04.470Z,0.90
2017-04-13T10:04:04.537Z,1.07
2017-04-13T10:05:04.651Z,1.53
2017-04-13T10:06:04.714Z,2.75
2017-04-13T10:07:05.241Z,1.95
2017-04-13T10:08:05.334Z,1.52
2017-04-13T10:09:06.185Z,1.52
2017-04-13T10:10:06.303Z,1.48
2017-04-13T10:11:07.312Z,1.40
2017-04-13T10:12:07.473Z,1.57
2017-04-13T10:13:07.559Z,1.42
2017-04-13T10:14:07.585Z,1.18
2017-04-13T10:15:07.847Z,1.68
2017-04-13T10:16:08.281Z,1.57
2017-04-13T10:17:08.397Z,0.98
2017-04-13T10:18:08.539Z,1.50
2017-04-13T10:19:08.652Z,1.83
2017-04-13T10:20:08.810Z,1.37
2017-04-13T10:21:09.222Z,1.82
2017-04-13T10:22:10.026Z,1.82
2017-04-13T10:23:10.092Z,1.62
2017-04-13T10:24:10.203Z,1.68
2017-04-13T10:25:10.322Z,2.28
2017-04-13T10:26:10.717Z,1.43
2017-04-13T10:27:10.837Z,2.02
2017-04-13T10:28:10.898Z,2.57
2017-04-13T10:29:10.965Z,1.78
2017-04-13T10:30:11.086Z,2.10
2017-04-13T10:31:11.751Z,1.85
2017-04-13T10:32:11.898Z,1.57
2017-04-13T10:33:12.067Z,1.65
2017-04-13T10:34:12.153Z,1.97
2017-04-13T10:35:12.251Z,1.85
2017-04-13T10:36:12.615Z,1.45
2017-04-13T10:37:12.707Z,1.75
2017-04-13T10:38:12.778Z,1.02
2017-04-13T10:39:13.072Z,1.92
2017-04-13T10:40:13.191Z,1.68
2017-04-13T10:41:14.426Z,1.17
2017-04-13T10:42:14.552Z,1.23
2017-04-13T10:43:14.691Z,1.73
2017-04-13T10:44:14.770Z,1.88
2017-04-13T10:45:14.973Z,1.53
2017-04-13T10:46:15.383Z,1.85
2017-04-13T10:47:16.056Z,1.50
2017-04-13T10:48:16.118Z,2.18
2017-04-13T10:49:16.183Z,1.47
2017-04-13T10:50:16.291Z,1.43
2017-04-13T10:51:16.901Z,1.73
2017-04-13T10:52:17.836Z,1.73
2017-04-13T10:53:18.090Z,3.00
2017-04-13T10:54:18.264Z,1.23
2017-04-13T10:55:18.353Z,2.38
2017-04-13T10:56:18.898Z,1.50
2017-04-13T10:57:19.016Z,1.55
2017-04-13T10:58:19.204Z,2.13
2017-04-13T10:59:19.312Z,1.43
2017-04-13T11:00:20.302Z,2.10
2017-04-13T11:01:20.874Z,1.58
2017-04-13T11:02:21.876Z,2.17
2017-04-13T11:03:21.964Z,2.37
2017-04-13T11:04:22.273Z,1.92
2017-04-13T11:05:22.352Z,2.80
2017-04-13T11:06:23.195Z,1.88
2017-04-13T11:07:23.349Z,1.90
2017-04-13T11:08:23.530Z,1.72
2017-04-13T11:09:23.717Z,2.20
2017-04-13T11:10:24.913Z,1.62
2017-04-13T11:11:25.326Z,1.25
2017-04-13T11:12:25.382Z,1.78
2017-04-13T11:13:25.466Z,1.40
2017-04-13T11:14:25.572Z,1.57
2017-04-13T11:15:25.832Z,1.93
2017-04-13T11:16:26.203Z,1.38
2017-04-13T11:17:26.419Z,1.27
2017-04-13T11:18:26.586Z,1.73
2017-04-13T11:19:26.757Z,1.75
2017-04-13T11:20:26.924Z,1.20
2017-04-13T11:21:26.974Z,1.72
2017-04-13T11:22:27.142Z,1.30
2017-04-13T11:23:27.430Z,1.42
2017-04-13T11:24:27.531Z,1.62
2017-04-13T11:25:27.701Z,1.00
2017-04-13T11:26:29.761Z,1.13
2017-04-13T11:27:29.968Z,0.98
2017-04-13T11:28:30.107Z,0.82
2017-04-13T11:29:30.157Z,1.08
2017-04-13T11:30:31.035Z,0.83
2017-04-13T11:31:31.481Z,1.50
2017-04-13T11:32:31.578Z,2.37
2017-04-13T11:33:31.757Z,1.28
2017-04-13T11:34:31.931Z,1.20
2017-04-13T11:35:31.931Z,1.08
2017-04-13T11:36:32.496Z,0.87
2017-04-13T11:37:32.599Z,0.97
2017-04-13T11:38:33.178Z,1.55
2017-04-13T11:39:33.292Z,1.00
2017-04-13T11:40:33.292Z,1.23
2017-04-13T11:41:33.835Z,1.35
2017-04-13T11:42:33.878Z,1.30
2017-04-13T11:43:34.079Z,1.33
2017-04-13T11:44:34.190Z,1.32
2017-04-13T11:45:34.231Z,2.05
2017-04-13T11:46:34.701Z,1.07
2017-04-13T11:47:35.046Z,1.15
2017-04-13T11:48:35.433Z,1.92
2017-04-13T11:49:35.615Z,1.28
2017-04-13T11:50:35.766Z,1.03
2017-04-13T11:51:36.252Z,2.52
2017-04-13T11:52:36.395Z,1.30
2017-04-13T11:53:37.442Z,0.83
2017-04-13T11:54:37.589Z,0.90
2017-04-13T11:55:37.714Z,1.28
2017-04-13T11:56:38.057Z,1.15
2017-04-13T11:57:41.306Z,1.08
2017-04-13T11:58:41.456Z,1.85
2017-04-13T11:59:41.842Z,1.90
2017-04-13T12:00:42.059Z,1.83
2017-04-13T12:01:42.461Z,1.28
2017-04-13T12:02:42.559Z,2.55
2017-04-13T12:03:42.634Z,1.70
2017-04-13T12:04:42.690Z,1.28
2017-04-13T12:05:42.757Z,1.78
2017-04-13T12:06:43.082Z,1.45
2017-04-13T12:07:43.179Z,1.08
2017-04-13T12:08:43.291Z,1.18
2017-04-13T12:09:43.384Z,1.35
2017-04-13T12:10:43.626Z,1.42
2017-04-13T12:12:05.792Z,1.73
2017-04-13T12:13:06.034Z,1.62
2017-04-13T12:14:07.412Z,1.87
2017-04-13T12:15:07.499Z,1.67
2017-04-13T12:16:08.219Z,1.47
2017-04-13T12:17:08.666Z,1.37
2017-04-13T12:18:08.789Z,2.10
2017-04-13T12:19:13.132Z,1.98
2017-04-13T12:20:13.445Z,3.77
2017-04-13T12:21:13.513Z,1.73
2017-04-13T12:22:13.549Z,1.55
2017-04-13T12:23:14.420Z,2.15
2017-04-13T12:24:14.575Z,1.78
2017-04-13T12:25:14.636Z,1.52
2017-04-13T12:26:14.982Z,1.47
2017-04-13T12:27:15.506Z,1.48
2017-04-13T12:28:15.623Z,1.48
2017-04-13T12:29:15.825Z,1.77
2017-04-13T12:30:19.822Z,1.50
2017-04-13T12:31:20.672Z,2.88
2017-04-13T12:32:21.330Z,1.17
2017-04-13T12:33:21.418Z,1.77
2017-04-13T12:34:21.531Z,1.80
2017-04-13T12:35:21.618Z,2.17
2017-04-13T12:36:21.786Z,1.92
2017-04-13T12:37:22.746Z,2.20
2017-04-13T12:38:22.903Z,2.67
2017-04-13T12:39:23.796Z,1.08
2017-04-13T12:40:24.030Z,1.92
2017-04-13T12:41:25.073Z,1.77
2017-04-13T12:42:25.882Z,1.68
2017-04-13T12:43:26.229Z,2.20
2017-04-13T12:44:33.885Z,1.95
2017-04-13T12:45:34.054Z,2.10
2017-04-13T12:46:34.615Z,2.42
2017-04-13T12:47:35.031Z,1.32
2017-04-13T12:48:35.815Z,1.83
2017-04-13T12:49:35.922Z,2.27
2017-04-13T12:50:36.154Z,1.58
2017-04-13T12:51:38.067Z,2.77
2017-04-13T12:52:38.443Z,2.18
2017-04-13T12:53:38.906Z,1.95
2017-04-13T12:54:39.077Z,2.22
2017-04-13T12:55:39.288Z,2.55
2017-04-13T12:56:39.479Z,1.70
2017-04-13T12:57:39.963Z,1.92
2017-04-13T12:58:40.983Z,1.48
2017-04-13T12:59:41.094Z,1.85
2017-04-13T13:00:41.135Z,1.67
2017-04-13T13:01:41.437Z,1.37
2017-04-13T13:02:41.856Z,1.82
2017-04-13T13:03:42.027Z,2.13
2017-04-13T13:04:42.177Z,1.37
2017-04-13T13:05:42.973Z,2.22
2017-04-13T13:06:43.668Z,1.27
2017-04-13T13:07:44.135Z,1.85
2017-04-13T13:08:44.967Z,1.28
2017-04-13T13:09:45.139Z,1.25
2017-04-13T13:10:45.222Z,0.80
2017-04-13T13:11:45.378Z,1.45
2017-04-13T13:12:45.849Z,1.63
2017-04-13T13:13:45.973Z,1.27
2017-04-13T13:14:46.081Z,1.58
2017-04-13T13:15:46.165Z,1.98
2017-04-13T13:16:46.296Z,2.03
2017-04-13T13:17:46.439Z,1.32
2017-04-13T13:18:46.532Z,1.85
2017-04-13T13:19:46.745Z,1.35
2017-04-13T13:20:46.851Z,2.62
2017-04-13T13:21:47.177Z,1.72
2017-04-13T13:22:47.630Z,2.25
2017-04-13T13:23:47.784Z,1.88
2017-04-13T13:24:47.838Z,2.35
2017-04-13T13:25:47.935Z,1.45
2017-04-13T13:26:54.761Z,2.05
2017-04-13T13:27:55.238Z,2.12
2017-04-13T13:28:55.339Z,2.73
2017-04-13T13:29:55.620Z,1.73
2017-04-13T13:30:55.688Z,1.63
2017-04-13T13:31:56.495Z,2.45
2017-04-13T13:32:57.637Z,1.75
2017-04-13T13:33:57.715Z,1.73
2017-04-13T13:34:58.645Z,2.03
2017-04-13T13:35:59.462Z,2.15